Terminal Aerodrome Forecast
Issued by NWS Tampa Bay Area, FL

Home | Current Version | Previous Version | Text Only | Print | Product List | Glossary On
Versions: 1 2 3 4 5 6 7 8 9 10 11 12 13 14 15 16 17 18 19 20 21 22 23 24 25
830
FTUS42 KTBW 240550
TAFTPA
TAF
KTPA 240550Z 2406/2506 21014G20KT P6SM SCT020 BKN200
     FM240700 21015G23KT P6SM -RA SCT015 BKN030 OVC060
     FM241500 21018G27KT 5SM -RA VCTS BKN025CB OVC050
     FM250000 23017G24KT 4SM -RA VCTS SCT015CB BKN030 OVC060=

USA.gov is the U.S. government's official web portal to all federal, state and local government web resources and services.